Time;durP1;ratioP1;P1;durP2;ratioP2;P2;SDS_P1;SDS_P2;PMS_P1;PMS_P2;Temp;Humidity;BMP_temperature;BMP_pressure;BME280_temperature;BME280_humidity;BME280_pressure;Samples;Min_cycle;Max_cycle;Signal;HPM_P1;HPM_P2
2023/09/22 00:00:19;;;;;;;8.75;6.93;;;;;;;13.81;100.00;99711.88;4943006;28;20043;-76
2023/09/22 00:02:47;;;;;;;8.57;6.63;;;;;;;13.81;100.00;99717.19;4946424;29;20499;-76
2023/09/22 00:05:14;;;;;;;7.38;6.45;;;;;;;13.81;100.00;99716.31;4919565;29;20055;-76
2023/09/22 00:07:43;;;;;;;7.85;5.72;;;;;;;13.80;100.00;99722.53;4930934;28;21100;-76
2023/09/22 00:10:12;;;;;;;9.98;6.90;;;;;;;13.80;100.00;99714.59;4882693;29;20043;-76
2023/09/22 00:12:40;;;;;;;7.47;6.20;;;;;;;13.77;100.00;99709.38;4946552;29;20058;-76
2023/09/22 00:15:09;;;;;;;8.55;6.10;;;;;;;13.76;100.00;99707.63;4915629;29;20039;-76
2023/09/22 00:17:36;;;;;;;8.50;5.97;;;;;;;13.75;100.00;99711.22;4929599;29;20051;-76
2023/09/22 00:20:08;;;;;;;6.63;5.90;;;;;;;13.75;100.00;99709.41;4928929;29;20419;-76
2023/09/22 00:22:36;;;;;;;7.07;6.38;;;;;;;13.74;100.00;99701.50;4936709;29;20059;-76
2023/09/22 00:25:04;;;;;;;7.20;5.70;;;;;;;13.74;100.00;99712.09;4870309;29;20395;-75
2023/09/22 00:27:31;;;;;;;9.77;6.53;;;;;;;13.75;100.00;99709.41;4929046;29;20051;-76
2023/09/22 00:29:59;;;;;;;10.40;6.65;;;;;;;13.75;100.00;99701.47;4946765;29;20043;-76
2023/09/22 00:32:26;;;;;;;7.45;5.90;;;;;;;13.76;100.00;99710.28;4943326;29;20059;-75
2023/09/22 00:34:54;;;;;;;6.53;5.93;;;;;;;13.76;100.00;99711.16;4930184;28;20058;-76
2023/09/22 00:37:22;;;;;;;9.07;6.93;;;;;;;13.76;100.00;99699.69;4932765;29;20039;-76
2023/09/22 00:39:53;;;;;;;8.98;5.85;;;;;;;13.76;100.00;99708.53;4930480;29;20050;-76
2023/09/22 00:42:22;;;;;;;7.88;6.45;;;;;;;13.75;100.00;99705.91;4898749;28;20095;-75
2023/09/22 00:44:50;;;;;;;5.60;5.10;;;;;;;13.74;100.00;99712.09;4929731;29;20506;-76
2023/09/22 00:47:17;;;;;;;6.10;5.55;;;;;;;13.74;100.00;99726.22;4926546;29;20062;-76
2023/09/22 00:49:45;;;;;;;8.90;5.85;;;;;;;13.72;100.00;99730.66;4929859;29;20050;-76
2023/09/22 00:52:13;;;;;;;5.13;4.72;;;;;;;13.71;100.00;99734.25;4937066;28;20517;-75
2023/09/22 00:54:41;;;;;;;4.75;4.18;;;;;;;13.70;100.00;99721.91;4927336;29;20119;-76
2023/09/22 00:57:09;;;;;;;5.43;4.82;;;;;;;13.68;100.00;99726.38;4891105;29;20525;-76
2023/09/22 00:59:37;;;;;;;5.25;4.75;;;;;;;13.68;100.00;99721.09;4941782;29;20051;-76
2023/09/22 01:02:04;;;;;;;5.43;4.53;;;;;;;13.70;100.00;99734.28;4922780;29;20523;-76
2023/09/22 01:04:34;;;;;;;5.85;5.22;;;;;;;13.70;100.00;99729.00;4944264;29;20051;-76
2023/09/22 01:07:01;;;;;;;6.38;5.30;;;;;;;13.69;100.00;99727.28;4912069;29;20062;-76
2023/09/22 01:09:28;;;;;;;4.38;3.88;;;;;;;13.68;100.00;99720.22;4937958;29;20048;-76
2023/09/22 01:11:56;;;;;;;5.43;4.13;;;;;;;13.69;100.00;99717.53;4853681;29;20399;-75
2023/09/22 01:14:23;;;;;;;7.57;5.07;;;;;;;13.68;100.00;99714.94;4922984;29;20059;-75
2023/09/22 01:16:51;;;;;;;5.60;4.90;;;;;;;13.68;100.00;99722.88;4943573;28;20039;-76
2023/09/22 01:19:19;;;;;;;6.03;4.60;;;;;;;13.69;100.00;99729.91;4943197;29;20062;-76
2023/09/22 01:21:48;;;;;;;5.15;4.65;;;;;;;13.70;100.00;99721.03;4929983;28;20532;-76
2023/09/22 01:24:16;;;;;;;5.32;4.78;;;;;;;13.70;100.00;99727.19;4932529;28;20070;-76
2023/09/22 01:26:44;;;;;;;4.95;4.38;;;;;;;13.71;100.00;99728.94;4872290;29;20050;-76
2023/09/22 01:29:11;;;;;;;8.07;4.43;;;;;;;13.73;100.00;99723.63;4946732;28;20244;-76
2023/09/22 01:31:38;;;;;;;4.32;3.95;;;;;;;13.73;100.00;99715.69;4948720;29;20520;-76
2023/09/22 01:34:08;;;;;;;4.10;3.80;;;;;;;13.75;100.00;99727.09;4930842;29;20054;-76
2023/09/22 01:36:35;;;;;;;4.13;3.80;;;;;;;13.75;100.00;99716.50;4947555;29;20482;-76
2023/09/22 01:39:04;;;;;;;5.22;4.13;;;;;;;13.76;100.00;99724.41;4922242;29;20058;-76
2023/09/22 01:41:35;;;;;;;6.70;4.05;;;;;;;13.76;100.00;99719.13;4915884;29;21052;-76
2023/09/22 01:44:03;;;;;;;4.10;3.80;;;;;;;13.78;100.00;99719.94;4856807;29;20043;-76
2023/09/22 01:46:30;;;;;;;4.20;3.80;;;;;;;13.79;100.00;99724.31;4931155;29;20043;-76
2023/09/22 01:48:58;;;;;;;6.50;4.00;;;;;;;13.79;100.00;99713.72;4945307;29;20048;-76
2023/09/22 01:51:25;;;;;;;4.40;4.05;;;;;;;13.80;100.00;99720.75;4944881;29;20066;-76
2023/09/22 01:53:55;;;;;;;6.72;3.75;;;;;;;13.81;100.00;99714.53;4932094;29;20043;-76
2023/09/22 01:56:22;;;;;;;5.77;5.17;;;;;;;13.81;100.00;99717.19;4919089;29;20055;-76
2023/09/22 01:58:50;;;;;;;7.55;5.10;;;;;;;13.79;100.00;99711.06;4886133;29;20415;-75
2023/09/22 02:01:19;;;;;;;5.63;5.03;;;;;;;13.79;100.00;99713.72;4956088;28;20054;-76
2023/09/22 02:03:47;;;;;;;5.93;4.70;;;;;;;13.79;100.00;99715.50;4932428;29;20054;-75
2023/09/22 02:06:14;;;;;;;8.77;5.28;;;;;;;13.80;100.00;99723.41;4947378;29;20051;-75
2023/09/22 02:08:43;;;;;;;5.72;5.13;;;;;;;13.80;100.00;99719.91;4963968;28;20062;-75
2023/09/22 02:11:11;;;;;;;13.15;6.95;;;;;;;13.81;100.00;99718.97;4921023;29;20517;-75
2023/09/22 02:13:40;;;;;;;10.55;7.85;;;;;;;13.80;100.00;99712.81;4930844;28;20066;-75
2023/09/22 02:16:07;;;;;;;12.93;8.50;;;;;;;13.82;100.00;99718.94;4889114;29;20055;-76
2023/09/22 02:18:35;;;;;;;13.35;9.30;;;;;;;13.83;100.00;99711.84;4943734;29;20058;-75
2023/09/22 02:21:05;;;;;;;11.00;8.57;;;;;;;13.84;100.00;99713.59;4910225;29;20055;-75
2023/09/22 02:23:33;;;;;;;;;;;;;;;13.86;100.00;99718.84;4944121;28;20434;-75
2023/09/22 02:26:06;;;;;;;13.70;10.52;;;;;;;13.87;100.00;99716.13;4948298;28;19922;-75
2023/09/22 02:28:34;;;;;;;19.27;13.23;;;;;;;13.90;100.00;99712.56;4926052;29;20481;-75
2023/09/22 02:31:01;;;;;;;16.05;12.68;;;;;;;13.92;100.00;99702.78;4903828;28;20429;-75
2023/09/22 02:33:29;;;;;;;23.80;13.25;;;;;;;13.93;100.00;99701.84;4962071;28;20058;-75
2023/09/22 02:35:59;;;;;;;16.98;13.05;;;;;;;13.92;100.00;99697.50;4899226;28;20419;-75
2023/09/22 02:38:26;;;;;;;22.25;13.88;;;;;;;13.92;100.00;99697.50;4929320;28;20050;-76
2023/09/22 02:40:54;;;;;;;22.40;14.05;;;;;;;13.91;100.00;99695.75;4964517;28;20406;-76
2023/09/22 02:43:21;;;;;;;20.38;13.77;;;;;;;13.89;100.00;99697.56;4936841;29;20046;-76
2023/09/22 02:45:50;;;;;;;24.20;15.30;;;;;;;13.86;100.00;99695.03;4900553;28;20058;-76
2023/09/22 02:48:18;;;;;;;23.77;14.32;;;;;;;13.86;100.00;99709.13;4944663;29;20047;-76
2023/09/22 02:50:46;;;;;;;21.48;14.15;;;;;;;13.88;100.00;99715.25;4948367;28;20047;-76
2023/09/22 02:53:13;;;;;;;23.77;15.15;;;;;;;13.90;100.00;99718.72;4928778;29;20051;-76
2023/09/22 02:55:41;;;;;;;22.52;15.02;;;;;;;13.92;100.00;99716.03;4916043;29;20051;-76
2023/09/22 02:58:08;;;;;;;21.25;14.57;;;;;;;13.94;100.00;99723.00;4935388;28;20051;-76
2023/09/22 03:00:36;;;;;;;23.70;16.27;;;;;;;13.95;100.00;99716.81;4871023;28;20882;-76
2023/09/22 03:03:05;;;;;;;27.83;17.25;;;;;;;13.98;100.00;99724.66;4962346;28;20039;-76
2023/09/22 03:05:32;;;;;;;21.10;15.50;;;;;;;13.98;100.00;99724.66;4930500;29;20047;-76
2023/09/22 03:08:00;;;;;;;21.58;15.70;;;;;;;14.00;100.00;99725.47;4930898;29;20052;-76
2023/09/22 03:10:29;;;;;;;21.90;15.90;;;;;;;14.01;100.00;99723.72;4926265;29;20415;-76
2023/09/22 03:12:58;;;;;;;30.35;18.40;;;;;;;13.98;100.00;99721.13;4912871;28;20418;-76
2023/09/22 03:15:26;;;;;;;30.45;17.90;;;;;;;13.97;100.00;99730.88;4883861;28;20066;-76
2023/09/22 03:17:53;;;;;;;29.20;18.95;;;;;;;13.97;100.00;99740.56;4949011;29;20519;-76
2023/09/22 03:20:22;;;;;;;24.50;17.73;;;;;;;13.97;100.00;99729.97;4943862;29;20063;-76
2023/09/22 03:22:50;;;;;;;28.52;18.65;;;;;;;13.96;100.00;99737.06;4931760;29;20055;-76
2023/09/22 03:25:19;;;;;;;24.02;18.02;;;;;;;13.98;100.00;99739.69;4928101;29;20557;-76
2023/09/22 03:27:47;;;;;;;26.27;17.77;;;;;;;13.98;100.00;99737.03;4940512;29;20512;-76
2023/09/22 03:30:18;;;;;;;26.67;17.95;;;;;;;13.98;100.00;99737.88;4934480;29;20051;-76
2023/09/22 03:32:46;;;;;;;30.42;20.17;;;;;;;13.99;100.00;99747.59;4886125;29;20054;-76
2023/09/22 03:35:15;;;;;;;33.88;21.10;;;;;;;13.99;100.00;99742.28;4912802;29;20051;-76
2023/09/22 03:37:42;;;;;;;26.23;19.85;;;;;;;14.01;100.00;99747.56;4931233;29;20055;-76
2023/09/22 03:40:13;;;;;;;28.65;20.55;;;;;;;14.00;100.00;99746.66;4928962;29;20047;-76
2023/09/22 03:42:45;;;;;;;26.15;20.58;;;;;;;14.00;100.00;99746.66;4931237;29;20047;-76
2023/09/22 03:45:13;;;;;;;26.33;19.38;;;;;;;13.99;100.00;99749.38;4902605;29;20059;-76
2023/09/22 03:47:41;;;;;;;30.48;20.88;;;;;;;13.98;100.00;99759.06;4871122;28;20051;-76
2023/09/22 03:50:10;;;;;;;28.67;20.38;;;;;;;13.96;100.00;99752.97;4927652;29;20047;-76
2023/09/22 03:52:40;;;;;;;26.75;19.45;;;;;;;13.95;100.00;99758.28;4943014;29;20047;-76
2023/09/22 03:55:12;;;;;;;33.53;22.42;;;;;;;13.94;100.00;99749.50;4926155;29;20051;-76
2023/09/22 03:57:40;;;;;;;26.15;18.23;;;;;;;13.93;100.00;99747.78;4911111;29;20067;-76
2023/09/22 04:00:10;;;;;;;30.35;20.75;;;;;;;13.93;100.00;99757.47;4916504;29;20063;-76
2023/09/22 04:02:39;;;;;;;27.10;19.60;;;;;;;13.93;100.00;99745.13;4886228;29;20118;-76
2023/09/22 04:05:08;;;;;;;27.08;19.25;;;;;;;13.90;100.00;99747.84;4866826;29;20438;-76
2023/09/22 04:07:35;;;;;;;31.98;20.23;;;;;;;13.90;100.00;99741.69;4903138;29;20052;-76
2023/09/22 04:10:03;;;;;;;33.70;21.60;;;;;;;13.87;100.00;99742.63;4909212;29;20067;-76
2023/09/22 04:12:32;;;;;;;30.45;20.00;;;;;;;13.83;100.00;99730.38;4908575;29;20052;-76
2023/09/22 04:14:59;;;;;;;36.03;21.45;;;;;;;13.81;100.00;99740.16;4902216;29;20054;-76
2023/09/22 04:17:27;;;;;;;31.25;21.67;;;;;;;13.81;100.00;99740.16;4931564;28;20530;-76
2023/09/22 04:19:55;;;;;;;28.48;19.48;;;;;;;13.80;100.00;99735.78;4882745;29;20054;-76
2023/09/22 04:22:22;;;;;;;29.55;19.88;;;;;;;13.80;100.00;99741.09;4884043;29;20040;-76
2023/09/22 04:24:59;;;;;;;37.05;22.83;;;;;;;13.78;100.00;99749.06;4940725;29;20052;-76
2023/09/22 04:27:36;;;;;;;28.50;18.55;;;;;;;13.77;100.00;99749.09;4924636;29;20043;-76
2023/09/22 04:30:07;;;;;;;28.73;18.52;;;;;;;13.75;100.00;99754.44;4919218;29;20067;-76
2023/09/22 04:32:35;;;;;;;28.45;17.52;;;;;;;13.72;100.00;99762.44;4915413;29;20054;-76
2023/09/22 04:35:06;;;;;;;25.17;16.27;;;;;;;13.70;100.00;99755.47;4861060;29;20058;-76
2023/09/22 04:37:33;;;;;;;23.13;15.70;;;;;;;13.67;100.00;99756.44;4908114;29;20051;-76
2023/09/22 04:40:03;;;;;;;28.05;16.85;;;;;;;13.67;100.00;99760.81;4899685;29;20048;-76
2023/09/22 04:42:30;;;;;;;25.58;14.75;;;;;;;13.64;100.00;99761.78;4907278;29;20075;-76
2023/09/22 04:44:59;;;;;;;19.90;13.68;;;;;;;13.62;100.00;99760.97;4908946;29;20055;-76
2023/09/22 04:47:26;;;;;;;23.38;13.30;;;;;;;13.60;100.00;99762.78;4880366;29;20551;-76
2023/09/22 04:49:54;;;;;;;20.27;12.93;;;;;;;13.55;100.00;99765.53;4878778;29;20055;-76
2023/09/22 04:52:21;;;;;;;19.73;12.43;;;;;;;13.54;100.00;99771.75;4905402;29;20323;-76
2023/09/22 04:54:48;;;;;;;21.30;13.70;;;;;;;13.52;100.00;99775.38;4898401;29;20048;-75
2023/09/22 04:57:16;;;;;;;21.15;13.18;;;;;;;13.53;100.00;99767.34;4906304;29;20047;-76
2023/09/22 04:59:44;;;;;;;22.85;13.10;;;;;;;13.52;100.00;99770.94;4890295;29;20051;-76
2023/09/22 05:02:11;;;;;;;24.73;13.93;;;;;;;13.52;100.00;99773.56;4880439;29;20514;-77
2023/09/22 05:04:43;;;;;;;22.05;13.02;;;;;;;13.51;100.00;99779.75;4859318;29;20055;-76
2023/09/22 05:07:11;;;;;;;27.98;12.70;;;;;;;13.50;100.00;99788.63;4902533;29;20495;-76
2023/09/22 05:09:39;;;;;;;19.33;11.57;;;;;;;13.48;100.00;99798.38;4916597;29;20379;-75
2023/09/22 05:12:08;;;;;;;20.98;12.18;;;;;;;13.48;100.00;99801.03;4909327;29;20055;-75
2023/09/22 05:14:35;;;;;;;22.35;12.73;;;;;;;13.48;100.00;99805.44;4937395;29;20066;-75
2023/09/22 05:17:02;;;;;;;25.77;14.05;;;;;;;13.48;100.00;99810.72;4907973;29;20450;-75
2023/09/22 05:19:30;;;;;;;21.85;13.40;;;;;;;13.50;100.00;99812.44;4850537;29;20648;-75
2023/09/22 05:21:57;;;;;;;23.77;13.88;;;;;;;13.51;100.00;99815.97;4915141;29;20063;-75
2023/09/22 05:24:24;;;;;;;22.60;13.20;;;;;;;13.51;100.00;99816.81;4905706;29;20047;-75
2023/09/22 05:26:52;;;;;;;24.67;13.85;;;;;;;13.49;100.00;99821.28;4898117;29;20052;-75
2023/09/22 05:29:19;;;;;;;20.65;13.13;;;;;;;13.49;100.00;99823.94;4905717;29;20059;-75
2023/09/22 05:31:47;;;;;;;24.77;14.02;;;;;;;13.48;100.00;99819.56;4894904;29;20036;-75
2023/09/22 05:34:15;;;;;;;22.73;13.02;;;;;;;13.49;100.00;99823.06;4904007;29;20048;-75
2023/09/22 05:36:42;;;;;;;24.92;14.10;;;;;;;13.48;100.00;99816.91;4856761;29;20059;-75
2023/09/22 05:39:10;;;;;;;21.52;13.68;;;;;;;13.47;100.00;99817.81;4922031;29;20054;-75
2023/09/22 05:41:38;;;;;;;26.88;15.65;;;;;;;13.48;100.00;99821.31;4901056;29;20070;-75
2023/09/22 05:44:05;;;;;;;24.15;15.40;;;;;;;13.47;100.00;99835.47;4918162;29;20056;-75
2023/09/22 05:46:33;;;;;;;24.70;15.38;;;;;;;13.45;100.00;99830.22;4920158;29;20503;-75
2023/09/22 05:49:00;;;;;;;26.63;16.23;;;;;;;13.43;100.00;99835.53;4902695;29;20052;-76
2023/09/22 05:51:31;;;;;;;24.65;15.55;;;;;;;13.41;100.00;99840.00;4883609;28;20222;-77
2023/09/22 05:53:59;;;;;;;29.37;16.57;;;;;;;13.38;100.00;99848.03;4923157;29;20078;-77
2023/09/22 05:56:26;;;;;;;23.23;14.98;;;;;;;13.37;100.00;99850.72;4923137;28;20315;-77
2023/09/22 05:58:53;;;;;;;26.98;15.48;;;;;;;13.37;100.00;99850.72;4932114;28;20051;-77
2023/09/22 06:01:22;;;;;;;24.20;15.15;;;;;;;13.37;100.00;99862.16;4925230;28;20605;-76
2023/09/22 06:03:49;;;;;;;23.98;15.95;;;;;;;13.34;100.00;99871.94;4932416;28;20426;-75
2023/09/22 06:06:17;;;;;;;27.23;18.08;;;;;;;13.30;100.00;99868.50;4900029;29;20051;-75
2023/09/22 06:08:45;;;;;;;29.00;17.02;;;;;;;13.30;100.00;99872.91;4900254;29;20051;-76
2023/09/22 06:11:13;;;;;;;28.52;16.80;;;;;;;13.32;100.00;99863.16;4929506;28;20058;-75
2023/09/22 06:13:42;;;;;;;30.15;17.42;;;;;;;13.35;100.00;99868.41;4920220;28;20055;-75
2023/09/22 06:16:09;;;;;;;29.00;17.45;;;;;;;13.40;100.00;99863.84;4929641;29;20058;-75
2023/09/22 06:18:37;;;;;;;25.08;16.80;;;;;;;13.44;100.00;99874.34;4889504;29;20042;-75
2023/09/22 06:21:06;;;;;;;28.00;18.17;;;;;;;13.51;100.00;99871.53;4888923;28;20051;-75
2023/09/22 06:23:33;;;;;;;25.75;16.02;;;;;;;13.56;100.00;99878.47;4866069;29;22095;-76
2023/09/22 06:26:03;;;;;;;25.17;16.73;;;;;;;13.59;100.00;99882.78;4919287;29;20047;-75
2023/09/22 06:28:31;;;;;;;25.85;16.38;;;;;;;13.62;100.00;99877.44;4921368;29;20051;-75
2023/09/22 06:31:03;;;;;;;26.50;17.50;;;;;;;13.64;100.00;99878.25;4932592;28;20047;-77
2023/09/22 06:33:30;;;;;;;26.63;15.82;;;;;;;13.68;100.00;99890.50;4924283;28;20051;-77
2023/09/22 06:36:01;;;;;;;26.02;16.20;;;;;;;13.72;100.00;99893.97;4926431;29;20055;-78
2023/09/22 06:38:28;;;;;;;;;;;;;;;13.77;100.00;99906.16;4898283;28;20051;-77
2023/09/22 06:40:56;;;;;;;25.48;15.55;;;;;;;13.81;100.00;99904.31;4932379;29;19926;-77
2023/09/22 06:43:24;;;;;;;30.13;16.02;;;;;;;13.87;100.00;99904.16;4912137;29;20039;-77
2023/09/22 06:45:53;;;;;;;22.70;15.32;;;;;;;13.87;100.00;99901.50;4906197;29;20066;-77
2023/09/22 06:48:22;;;;;;;23.52;16.08;;;;;;;13.88;100.00;99889.16;4930490;28;20047;-77
2023/09/22 06:50:51;;;;;;;26.77;17.67;;;;;;;13.88;100.00;99902.41;4937848;29;20051;-77
2023/09/22 06:53:19;;;;;;;27.58;17.23;;;;;;;13.88;100.00;99899.75;4856231;29;20073;-77
2023/09/22 06:55:48;;;;;;;28.25;17.23;;;;;;;13.92;100.00;99904.91;4895011;29;20051;-77
2023/09/22 06:58:15;;;;;;;25.10;16.60;;;;;;;13.95;100.00;99909.25;4907608;29;20051;-77
2023/09/22 07:00:42;;;;;;;29.05;16.45;;;;;;;13.98;100.00;99912.69;4893282;29;20048;-77
2023/09/22 07:03:11;;;;;;;23.27;16.48;;;;;;;14.00;100.00;99908.22;4903445;29;20047;-77
2023/09/22 07:05:40;;;;;;;24.83;16.38;;;;;;;14.04;100.00;99916.97;4881082;29;20043;-78
2023/09/22 07:08:07;;;;;;;23.45;15.00;;;;;;;14.07;100.00;99922.19;4897132;29;20051;-77
2023/09/22 07:10:35;;;;;;;20.35;14.75;;;;;;;14.13;100.00;99918.53;4910703;29;20051;-78
2023/09/22 07:13:02;;;;;;;25.38;15.55;;;;;;;14.17;100.00;99914.88;4907589;29;20047;-78
2023/09/22 07:15:31;;;;;;;23.83;14.45;;;;;;;14.20;100.00;99912.16;4922112;29;24641;-77
2023/09/22 07:17:58;;;;;;;22.33;15.38;;;;;;;14.23;100.00;99912.06;4915235;29;20507;-78
2023/09/22 07:20:26;;;;;;;23.65;15.38;;;;;;;14.23;100.00;99909.41;4896639;29;20059;-78
2023/09/22 07:22:53;;;;;;;22.77;15.48;;;;;;;14.26;100.00;99917.28;4902565;29;20077;-78
2023/09/22 07:25:22;;;;;;;22.42;14.82;;;;;;;14.29;100.00;99918.97;4842550;29;20036;-78
2023/09/22 07:27:52;;;;;;;23.02;14.65;;;;;;;14.33;100.00;99924.16;4892087;29;20056;-79
2023/09/22 07:30:20;;;;;;;20.23;14.20;;;;;;;14.38;100.00;99930.19;4899764;29;20055;-78
2023/09/22 07:32:47;;;;;;;21.90;13.75;;;;;;;14.40;100.00;99923.09;4915158;29;20483;-77
2023/09/22 07:35:15;;;;;;;19.33;12.38;;;;;;;14.38;100.00;99931.97;4872240;29;20048;-78
2023/09/22 07:37:44;;;;;;;20.90;14.65;;;;;;;14.34;100.00;99930.31;4885900;29;20067;-77
2023/09/22 07:40:12;;;;;;;22.60;14.63;;;;;;;14.30;100.00;99934.84;4881771;29;20569;-77
2023/09/22 07:42:41;;;;;;;20.02;12.10;;;;;;;14.30;100.00;99934.84;4884810;29;20063;-77
2023/09/22 07:45:10;;;;;;;17.42;12.48;;;;;;;14.29;100.00;99934.88;4927858;29;20047;-76
2023/09/22 07:47:38;;;;;;;21.25;12.35;;;;;;;14.26;100.00;99943.78;4916908;29;20462;-76
2023/09/22 07:50:06;;;;;;;20.15;13.07;;;;;;;14.28;100.00;99949.03;4913853;28;20503;-76
2023/09/22 07:52:34;;;;;;;19.75;12.32;;;;;;;14.26;100.00;99964.97;4938861;29;20423;-76
2023/09/22 07:55:01;;;;;;;21.27;12.27;;;;;;;14.22;100.00;99969.50;4896025;29;20054;-77
2023/09/22 07:57:30;;;;;;;18.77;13.38;;;;;;;14.17;100.00;99975.81;4921309;29;20080;-76
2023/09/22 07:59:57;;;;;;;20.25;13.20;;;;;;;14.12;100.00;99961.81;4890889;29;20054;-76
2023/09/22 08:02:25;;;;;;;21.58;12.45;;;;;;;14.10;100.00;99975.13;4888244;29;20052;-76
2023/09/22 08:04:52;;;;;;;18.77;11.77;;;;;;;14.13;100.00;99976.81;4930510;29;20054;-77
2023/09/22 08:07:20;;;;;;;17.25;10.93;;;;;;;14.09;100.00;99976.00;4920437;29;20040;-76
2023/09/22 08:09:47;;;;;;;16.02;10.63;;;;;;;14.07;100.00;99979.63;4921761;29;20066;-76
2023/09/22 08:12:15;;;;;;;22.20;10.88;;;;;;;14.03;100.00;99984.13;4878000;29;20054;-76
2023/09/22 08:14:45;;;;;;;21.67;10.77;;;;;;;14.03;100.00;99984.97;4942261;29;20058;-76
2023/09/22 08:17:23;;;;;;;20.63;10.00;;;;;;;13.98;100.00;99984.22;4936463;29;20529;-77
2023/09/22 08:19:51;;;;;;;12.48;9.40;;;;;;;13.96;100.00;99986.03;4897705;29;20047;-76
2023/09/22 08:22:19;;;;;;;16.02;9.88;;;;;;;13.96;100.00;99990.47;4912403;29;20040;-76
2023/09/22 08:24:46;;;;;;;18.70;10.50;;;;;;;13.91;100.00;99992.34;4879838;29;20051;-75
2023/09/22 08:27:14;;;;;;;17.60;10.38;;;;;;;13.88;100.00;99995.97;4863591;29;20055;-75
2023/09/22 08:29:41;;;;;;;16.48;10.10;;;;;;;13.86;100.00;99997.78;4909482;29;20058;-76
2023/09/22 08:32:09;;;;;;;15.50;10.43;;;;;;;13.87;100.00;99988.91;4896496;29;20052;-77
2023/09/22 08:34:38;;;;;;;15.60;10.40;;;;;;;13.87;100.00;99983.59;4893332;29;20071;-77
2023/09/22 08:37:07;;;;;;;16.30;10.63;;;;;;;13.85;100.00;99985.41;4923474;29;20059;-76
2023/09/22 08:39:34;;;;;;;20.48;10.35;;;;;;;13.86;100.00;99996.91;4915929;29;20051;-76
2023/09/22 08:42:02;;;;;;;14.38;10.45;;;;;;;13.83;100.00;100005.78;4856433;29;20064;-76
2023/09/22 08:44:30;;;;;;;15.77;11.45;;;;;;;13.83;100.00;100008.44;4921540;29;20059;-76
2023/09/22 08:46:58;;;;;;;16.65;11.10;;;;;;;13.84;100.00;99999.59;4938908;29;20075;-76
2023/09/22 08:49:26;;;;;;;16.35;10.95;;;;;;;13.86;100.00;100023.38;4919371;29;20506;-76
2023/09/22 08:51:55;;;;;;;17.55;11.00;;;;;;;13.88;100.00;100017.13;4903420;29;20052;-77
2023/09/22 08:54:22;;;;;;;17.63;11.73;;;;;;;13.90;100.00;100020.63;4901160;29;20403;-76
2023/09/22 08:56:51;;;;;;;14.20;10.35;;;;;;;13.89;100.00;100015.34;4891247;29;20527;-76
2023/09/22 08:59:18;;;;;;;18.20;9.43;;;;;;;13.87;100.00;100020.69;4906659;29;20059;-76
2023/09/22 09:01:45;;;;;;;20.30;9.23;;;;;;;13.83;100.00;100019.00;4925457;29;20051;-76
2023/09/22 09:04:33;;;;;;;17.75;9.02;;;;;;;13.86;100.00;100015.44;4882627;29;20051;-82
2023/09/22 09:07:04;;;;;;;15.15;8.68;;;;;;;13.91;100.00;100024.13;4928877;29;20055;-83
2023/09/22 09:09:47;;;;;;;13.32;8.43;;;;;;;14.02;100.00;100025.59;4912126;29;20521;-77
2023/09/22 09:12:15;;;;;;;14.75;8.25;;;;;;;14.12;100.00;100028.03;4887371;28;20087;-77
2023/09/22 09:14:47;;;;;;;10.15;7.75;;;;;;;14.18;100.00;100025.25;4898702;29;20060;-76
2023/09/22 09:17:22;;;;;;;15.65;7.22;;;;;;;14.25;100.00;100032.13;4923239;29;20059;-77
2023/09/22 09:19:55;;;;;;;12.57;7.88;;;;;;;14.30;100.00;100029.38;4902575;29;20074;-77
2023/09/22 09:22:37;;;;;;;7.57;5.88;;;;;;;14.30;100.00;100030.25;4926007;29;20044;-77
2023/09/22 09:25:09;;;;;;;6.82;4.85;;;;;;;14.32;100.00;100024.91;4915238;29;20058;-78
2023/09/22 09:27:37;;;;;;;7.90;5.05;;;;;;;14.31;100.00;100025.81;4919462;29;20063;-77
2023/09/22 09:30:08;;;;;;;7.85;5.20;;;;;;;14.31;100.00;100028.44;4839410;29;20060;-77
2023/09/22 09:32:36;;;;;;;15.45;5.47;;;;;;;14.31;100.00;100026.69;4944484;29;20062;-78
2023/09/22 09:35:04;;;;;;;10.05;5.78;;;;;;;14.32;100.00;100033.72;4895829;29;20495;-77
2023/09/22 09:37:32;;;;;;;7.43;5.50;;;;;;;14.36;100.00;100029.22;4936403;29;20043;-78
2023/09/22 09:40:00;;;;;;;9.98;5.20;;;;;;;14.43;100.00;100030.81;4933314;29;20055;-78
2023/09/22 09:42:27;;;;;;;6.65;4.68;;;;;;;14.55;100.00;100034.91;4902524;29;20051;-78
2023/09/22 09:45:01;;;;;;;7.13;4.43;;;;;;;14.75;100.00;100024.69;4868894;29;20233;-77
2023/09/22 09:47:32;;;;;;;6.13;3.90;;;;;;;15.04;100.00;100015.03;4930827;29;20075;-78
2023/09/22 09:50:04;;;;;;;5.47;3.63;;;;;;;15.27;100.00;100011.72;4905990;29;20047;-77
2023/09/22 09:52:52;;;;;;;4.22;3.05;;;;;;;15.53;100.00;100016.25;4920796;29;20055;-77
2023/09/22 09:55:21;;;;;;;2.78;2.47;;;;;;;15.81;100.00;100022.53;4949340;28;20481;-78
2023/09/22 09:57:52;;;;;;;8.43;2.30;;;;;;;16.04;100.00;100025.31;4941635;29;20066;-77
2023/09/22 10:00:19;;;;;;;7.13;2.97;;;;;;;16.20;100.00;100023.03;4904507;28;20054;-77
2023/09/22 10:02:49;;;;;;;3.95;2.60;;;;;;;16.29;100.00;100022.72;4931949;28;20520;-77
2023/09/22 10:05:21;;;;;;;3.50;2.13;;;;;;;16.37;100.00;100018.03;4933306;29;20054;-76
2023/09/22 10:07:50;;;;;;;5.43;2.35;;;;;;;16.48;100.00;100024.75;4912350;29;20552;-80
2023/09/22 10:10:20;;;;;;;4.82;2.50;;;;;;;16.47;100.00;100028.34;4933477;29;20051;-77
2023/09/22 10:12:48;;;;;;;2.30;1.98;;;;;;;16.48;100.00;100033.63;4920910;29;20330;-77
2023/09/22 10:15:15;;;;;;;5.95;2.90;;;;;;;16.43;100.00;100032.91;4895077;29;20062;-77
2023/09/22 10:17:53;;;;;;;3.22;2.00;;;;;;;16.40;100.00;100030.31;4930899;29;20532;-77
2023/09/22 10:20:47;;;;;;;3.55;2.33;;;;;;;16.47;100.00;100021.22;4944847;28;20054;-77
2023/09/22 10:23:17;;;;;;;3.42;2.75;;;;;;;16.53;100.00;100020.16;4895902;29;20051;-77
2023/09/22 10:26:13;;;;;;;4.68;1.95;;;;;;;16.57;100.00;100022.63;4947894;28;20058;-77
2023/09/22 10:28:41;;;;;;;2.60;1.95;;;;;;;16.56;100.00;100020.06;4916506;28;20047;-76
2023/09/22 10:31:09;;;;;;;4.72;2.05;;;;;;;16.62;100.00;100022.50;4888919;29;20054;-76
2023/09/22 10:33:37;;;;;;;2.47;1.27;;;;;;;16.76;100.00;100016.69;4908426;29;20054;-77
2023/09/22 10:36:04;;;;;;;2.60;1.55;;;;;;;16.80;100.00;100017.44;4928065;29;20055;-76
2023/09/22 10:38:52;;;;;;;1.48;1.20;;;;;;;16.93;100.00;100021.44;4905307;28;20070;-76
2023/09/22 10:41:20;;;;;;;0.95;0.95;;;;;;;17.02;100.00;100007.78;4930011;29;20511;-76
2023/09/22 10:43:58;;;;;;;2.05;1.02;;;;;;;17.00;100.00;100006.97;4918716;29;20039;-77
2023/09/22 10:46:27;;;;;;;3.22;1.20;;;;;;;16.93;100.00;100008.13;4899176;28;20027;-76
2023/09/22 10:48:54;;;;;;;2.28;1.25;;;;;;;16.76;100.00;100009.56;4912615;29;20051;-76
2023/09/22 10:51:41;;;;;;;1.40;1.15;;;;;;;16.70;100.00;100011.59;4912166;29;20066;-76
2023/09/22 10:54:08;;;;;;;2.40;1.10;;;;;;;16.75;100.00;100002.50;4909575;28;20486;-76
2023/09/22 10:56:35;;;;;;;4.60;1.30;;;;;;;16.68;100.00;100008.97;4908484;29;20043;-76
2023/09/22 10:59:04;;;;;;;2.03;1.15;;;;;;;16.54;100.00;100008.56;4916029;29;20047;-76
2023/09/22 11:01:44;;;;;;;3.50;1.45;;;;;;;16.44;100.00;99996.53;4887373;29;20449;-76
2023/09/22 11:04:12;;;;;;;2.05;1.23;;;;;;;16.29;100.00;100005.91;4926069;29;20043;-76
2023/09/22 11:06:45;;;;;;;1.42;1.05;;;;;;;16.42;100.00;100001.03;4929519;29;20054;-77
2023/09/22 11:09:14;;;;;;;1.30;1.20;;;;;;;16.62;100.00;100009.19;4907488;29;20054;-76
2023/09/22 11:11:45;;;;;;;1.38;1.00;;;;;;;16.91;100.00;100012.63;4928570;29;20059;-76
2023/09/22 11:14:12;;;;;;;1.23;1.05;;;;;;;17.19;100.00;100004.50;4919336;28;20042;-77
2023/09/22 11:16:47;;;;;;;3.53;1.23;;;;;;;17.41;100.00;100014.31;4883135;29;20711;-77
2023/09/22 11:19:14;;;;;;;2.58;1.77;;;;;;;17.48;100.00;100018.50;4943449;29;20043;-77
2023/09/22 11:21:43;;;;;;;1.42;1.13;;;;;;;17.42;100.00;100024.94;4912008;29;20059;-76